This is the latest recevied weather packets stored in our database for station/object LZ1BAB-WX. If no packets are shown the sender has not sent any weather packets the latest 1 day(s).
| Time | Temp. | Humidity | Pressure | Rain* | Wind** | Luminosity | Snow |
|---|---|---|---|---|---|---|---|
| 1778079306 | 22.78° C | 47% | 1014.7 hPa | 0 mm | - | 84 W/m² | - |
| 1778079186 | 22.78° C | 46% | 1014.6 hPa | 0 mm | - | 77 W/m² | - |
| 1778078837 | 23.33° C | 43% | 1014.7 hPa | 0 mm | - | 62 W/m² | - |
| 1778078717 | 23.33° C | 43% | 1014.7 hPa | 0 mm | - | 60 W/m² | - |
| 1778077745 | 23.89° C | 41% | 1014.8 hPa | 0 mm | - | 54 W/m² | - |
| 1778077506 | 24.44° C | 41% | 1014.6 hPa | 0 mm | - | 57 W/m² | - |
| 1778077386 | 24.44° C | 41% | 1014.6 hPa | 0 mm | - | 62 W/m² | - |
| 1778077146 | 24.44° C | 40% | 1014.6 hPa | 0 mm | - | 74 W/m² | - |
| 1778077026 | 24.44° C | 40% | 1014.6 hPa | 0 mm | - | 77 W/m² | - |
| 1778076906 | 24.44° C | 40% | 1014.4 hPa | 0 mm | - | 81 W/m² | - |
| 1778076786 | 25° C | 39% | 1014.8 hPa | 0 mm | - | 82 W/m² | - |
| 1778076665 | 25° C | 39% | 1014.2 hPa | 0 mm | - | 93 W/m² | - |
| 1778076426 | 24.44° C | 40% | 1014.7 hPa | 0 mm | - | 293 W/m² | - |
| 1778076186 | 24.44° C | 41% | 1014.6 hPa | 0 mm | - | 103 W/m² | - |
| 1778076067 | 23.89° C | 41% | 1014.7 hPa | 0 mm | - | 263 W/m² | - |
| 1778075106 | 23.89° C | 41% | 1014.8 hPa | 0 mm | - | 68 W/m² | - |
| 1778074986 | 23.89° C | 40% | 1014.3 hPa | 0 mm | - | 73 W/m² | - |
| 1778074746 | 24.44° C | 39% | 1014.6 hPa | 0 mm | - | 74 W/m² | - |
| 1778074626 | 24.44° C | 39% | 1014.6 hPa | 0 mm | - | 72 W/m² | - |
| 1778074506 | 24.44° C | 39% | 1014.4 hPa | 0 mm | - | 73 W/m² | - |
| 1778074386 | 24.44° C | 38% | 1014.7 hPa | 0 mm | - | 75 W/m² | - |
| 1778074146 | 25° C | 39% | 1014.6 hPa | 0 mm | - | 80 W/m² | - |
| 1778073186 | 26.67° C | 30% | 1014.4 hPa | 0 mm | - | 139 W/m² | - |
| 1778073066 | 27.22° C | 30% | 1014.4 hPa | 0 mm | - | 168 W/m² | - |
| 1778072946 | 27.22° C | 29% | 1014.6 hPa | 0 mm | - | 453 W/m² | - |
* Rain latest hour (hover to see other rain measurements)
** Current wind speed in m/s (hover to see current wind gust speed)